Time;durP1;ratioP1;P1;durP2;ratioP2;P2;SDS_P1;SDS_P2;PMS_P1;PMS_P2;Temp;Humidity;BMP_temperature;BMP_pressure;BME280_temperature;BME280_humidity;BME280_pressure;Samples;Min_cycle;Max_cycle;Signal;HPM_P1;HPM_P2
2022/07/29 00:01:12;;;;;;;;;;;;;;;21.29;59.74;100430.05;1483374;87;20287;-80
2022/07/29 00:03:38;;;;;;;;;;;;;;;21.29;59.56;100429.20;1389890;87;20300;-80
2022/07/29 00:06:04;;;;;;;;;;;;;;;21.26;60.10;100425.59;1420966;89;20274;-80
2022/07/29 00:08:30;;;;;;;;;;;;;;;21.26;59.80;100430.98;1404949;87;20326;-80
2022/07/29 00:10:56;;;;;;;;;;;;;;;21.27;60.68;100432.64;1528471;90;20855;-81
2022/07/29 00:13:24;;;;;;;;;;;;;;;21.25;60.61;100429.34;1497328;88;20255;-81
2022/07/29 00:15:50;;;;;;;;;;;;;;;21.25;59.92;100429.34;1539775;89;20262;-80
2022/07/29 00:18:17;;;;;;;;;;;;;;;21.22;60.69;100425.21;1483596;89;20227;-80
2022/07/29 00:20:43;;;;;;;;;;;;;;;21.24;60.12;100425.01;1488744;88;20295;-81
2022/07/29 00:23:08;;;;;;;;;;;;;;;21.19;59.98;100421.09;1462484;88;20284;-81
2022/07/29 00:25:35;;;;;;;;;;;;;;;21.16;60.63;100418.02;1455352;89;20462;-81
2022/07/29 00:28:00;;;;;;;;;;;;;;;21.11;60.40;100416.48;1452736;89;20322;-81
2022/07/29 00:30:26;;;;;;;;;;;;;;;21.04;61.09;100412.50;1455640;89;20366;-81
2022/07/29 00:32:52;;;;;;;;;;;;;;;21.01;60.82;100419.66;1451677;89;20950;-81
2022/07/29 00:38:05;;;;;;;;;;;;;;;20.88;61.76;100413.83;1458335;89;20299;-80
2022/07/29 00:40:31;;;;;;;;;;;;;;;20.84;61.88;100415.31;1459879;89;20285;-80
2022/07/29 00:42:57;;;;;;;;;;;;;;;20.79;61.63;100412.43;1458589;89;20277;-80
2022/07/29 00:45:23;;;;;;;;;;;;;;;20.72;61.92;100419.20;1450974;89;20293;-80
2022/07/29 00:47:49;;;;;;;;;;;;;;;20.68;62.13;100421.17;1454076;89;20262;-80
2022/07/29 00:50:15;;;;;;;;;;;;;;;20.63;62.62;100409.73;1462456;88;21532;-80
2022/07/29 00:52:42;;;;;;;;;;;;;;;20.62;62.85;100413.97;1470174;88;20399;-82
2022/07/29 00:55:12;;;;;;;;;;;;;;;20.61;62.63;100418.52;1457597;89;20939;-80
2022/07/29 00:57:40;;;;;;;;;;;;;;;20.59;63.18;100416.56;1449557;89;20421;-81
2022/07/29 01:00:08;;;;;;;;;;;;;;;20.58;63.04;100412.23;1450200;89;20417;-81
2022/07/29 01:02:34;;;;;;;;;;;;;;;20.58;63.71;100405.51;1455757;89;20343;-80
2022/07/29 01:05:01;;;;;;;;;;;;;;;20.60;63.18;100408.81;1448013;90;20324;-80
2022/07/29 01:07:30;;;;;;;;;;;;;;;20.59;63.53;100409.84;1515810;90;20258;-80
2022/07/29 01:09:56;;;;;;;;;;;;;;;20.57;63.53;100418.66;1457618;90;20367;-81
2022/07/29 01:12:27;;;;;;;;;;;;;;;20.57;63.04;100409.25;1457439;88;20878;-80
2022/07/29 01:14:54;;;;;;;;;;;;;;;20.57;63.87;100413.77;1458790;89;20279;-80
2022/07/29 01:17:40;;;;;;;;;;;;;;;20.58;63.93;100413.58;1391285;89;20372;-80
2022/07/29 01:20:15;;;;;;;;;;;;;;;20.60;63.22;100405.28;1453495;88;20366;-80
2022/07/29 01:23:07;;;;;;;;;;;;;;;20.58;63.77;100409.55;1458047;89;20378;-80
2022/07/29 01:26:10;;;;;;;;;;;;;;;20.55;64.06;100400.56;1454986;90;20419;-80
2022/07/29 01:29:12;;;;;;;;;;;;;;;20.56;63.49;100404.89;1443475;90;20387;-80
2022/07/29 01:32:00;;;;;;;;;;;;;;;20.52;63.69;100403.65;1464383;88;20331;-80
2022/07/29 01:34:50;;;;;;;;;;;;;;;20.42;63.82;100395.20;1447394;89;20298;-80
2022/07/29 01:37:26;;;;;;;;;;;;;;;20.38;64.64;100404.22;1457925;89;20307;-80
2022/07/29 01:39:54;;;;;;;;;;;;;;;20.35;64.52;100403.30;1449542;89;20285;-80
2022/07/29 01:42:24;;;;;;;;;;;;;;;20.29;64.62;100404.15;1448974;89;21000;-80
2022/07/29 01:45:09;;;;;;;;;;;;;;;20.23;65.29;100400.45;1456556;89;20293;-80
2022/07/29 01:47:39;;;;;;;;;;;;;;;20.21;65.11;100400.34;1454447;89;20415;-80
2022/07/29 01:50:08;;;;;;;;;;;;;;;20.14;65.49;100399.52;1459725;88;20406;-79
2022/07/29 01:52:38;;;;;;;;;;;;;;;20.13;64.90;100397.88;1478188;87;20272;-80
2022/07/29 01:55:09;;;;;;;;;;;;;;;20.09;64.99;100400.17;1469732;87;20300;-80
2022/07/29 01:57:37;;;;;;;;;;;;;;;20.06;65.71;100399.25;1473517;87;20283;-80
2022/07/29 02:00:05;;;;;;;;;;;;;;;20.02;66.05;100392.14;1454362;88;20355;-80
2022/07/29 02:02:33;;;;;;;;;;;;;;;20.03;66.25;100395.65;1454570;87;20398;-80
2022/07/29 02:05:01;;;;;;;;;;;;;;;20.03;65.95;100395.65;1529742;89;20209;-81
2022/07/29 02:07:30;;;;;;;;;;;;;;;20.01;65.89;100399.87;1549873;87;20256;-80
2022/07/29 02:09:57;;;;;;;;;;;;;;;20.02;65.77;100393.98;1514426;87;20247;-81
2022/07/29 02:12:28;;;;;;;;;;;;;;;19.99;65.73;100389.84;1562693;88;20253;-81
2022/07/29 02:14:56;;;;;;;;;;;;;;;20.00;66.35;100396.89;1469120;88;20336;-79
2022/07/29 02:17:54;;;;;;;;;;;;;;;20.00;66.08;100388.83;1466843;88;20395;-79
2022/07/29 02:20:20;;;;;;;;;;;;;;;19.96;66.02;100386.77;1473349;88;20268;-81
2022/07/29 02:22:49;;;;;;;;;;;;;;;19.91;66.10;100388.75;1473629;88;20239;-79
2022/07/29 02:25:20;;;;;;;;;;;;;;;19.87;66.74;100395.56;1467871;87;20404;-79
2022/07/29 02:27:47;;;;;;;;;;;;;;;19.87;67.04;100395.56;1464734;88;20276;-80
2022/07/29 02:30:13;;;;;;;;;;;;;;;19.85;67.40;100409.70;1472234;87;20328;-79
2022/07/29 02:32:51;;;;;;;;;;;;;;;19.84;66.95;100406.20;1468318;87;20305;-79
2022/07/29 02:35:39;;;;;;;;;;;;;;;19.79;67.07;100402.00;1459575;88;20298;-80
2022/07/29 02:41:41;;;;;;;;;;;;;;;19.71;67.82;100407.58;1449806;89;20424;-79
2022/07/29 02:44:13;;;;;;;;;;;;;;;19.69;67.48;100406.95;1420272;91;20427;-79
2022/07/29 02:46:45;;;;;;;;;;;;;;;19.67;68.15;100406.84;1413156;91;20384;-79
2022/07/29 02:49:30;;;;;;;;;;;;;;;19.64;68.07;100405.89;1419902;91;20343;-80
2022/07/29 02:51:59;;;;;;;;;;;;;;;19.60;68.52;100404.97;1392126;92;20405;-79
2022/07/29 02:54:41;;;;;;;;;;;;;;;19.54;68.79;100400.95;1398117;94;20847;-80
2022/07/29 02:57:28;;;;;;;;;;;;;;;19.54;68.78;100402.30;1402883;92;21682;-79
2022/07/29 02:59:55;;;;;;;;;;;;;;;19.49;68.96;100396.71;1400787;93;20282;-79
2022/07/29 03:02:21;;;;;;;;;;;;;;;19.48;68.41;100405.77;1389129;94;20424;-80
2022/07/29 03:04:48;;;;;;;;;;;;;;;19.43;68.34;100402.91;1397490;94;20402;-79
2022/07/29 03:07:16;;;;;;;;;;;;;;;19.37;69.01;100402.70;1406657;92;20978;-79
2022/07/29 03:09:42;;;;;;;;;;;;;;;19.33;69.78;100412.20;1418089;90;20897;-80
2022/07/29 03:12:08;;;;;;;;;;;;;;;19.32;69.67;100401.13;1412887;92;20399;-79
2022/07/29 03:14:35;;;;;;;;;;;;;;;19.31;70.16;100401.36;1414238;90;20324;-80
2022/07/29 03:17:02;;;;;;;;;;;;;;;19.31;69.82;100398.16;1418314;90;20399;-81
2022/07/29 03:19:29;;;;;;;;;;;;;;;19.30;70.41;100400.50;1411718;90;20883;-81
2022/07/29 03:21:58;;;;;;;;;;;;;;;19.33;70.14;100398.78;1443272;89;20282;-80
2022/07/29 03:24:26;;;;;;;;;;;;;;;19.34;70.13;100396.40;1460847;89;20945;-81
2022/07/29 03:26:52;;;;;;;;;;;;;;;19.34;70.15;100400.42;1457131;89;20379;-81
2022/07/29 03:29:17;;;;;;;;;;;;;;;19.35;70.15;100398.04;1465664;89;20290;-81
2022/07/29 03:31:43;;;;;;;;;;;;;;;19.38;69.45;100404.34;1453726;89;20345;-81
2022/07/29 03:34:09;;;;;;;;;;;;;;;19.37;70.29;100397.84;1452325;89;20283;-81
2022/07/29 03:36:35;;;;;;;;;;;;;;;19.36;70.40;100403.73;1463421;89;20974;-81
2022/07/29 03:39:02;;;;;;;;;;;;;;;19.33;71.30;100393.41;1449412;89;20300;-81
2022/07/29 03:41:28;;;;;;;;;;;;;;;19.36;70.51;100401.55;1440676;89;20349;-81
2022/07/29 03:43:55;;;;;;;;;;;;;;;19.33;71.13;100400.13;1440869;89;20319;-81
2022/07/29 03:46:22;;;;;;;;;;;;;;;19.30;71.19;100397.82;1460926;88;21116;-81
2022/07/29 03:48:50;;;;;;;;;;;;;;;19.34;71.32;100396.92;1445533;89;20842;-80
2022/07/29 03:51:16;;;;;;;;;;;;;;;19.35;71.56;100406.09;1445866;88;20353;-79
2022/07/29 03:53:42;;;;;;;;;;;;;;;19.37;70.69;100405.90;1441634;89;20345;-80
2022/07/29 03:56:09;;;;;;;;;;;;;;;19.41;70.83;100404.97;1432873;89;20310;-80
2022/07/29 03:58:36;;;;;;;;;;;;;;;19.42;71.02;100402.09;1431517;91;20466;-80
2022/07/29 04:01:02;;;;;;;;;;;;;;;19.47;71.13;100401.45;1432882;90;20949;-80
2022/07/29 04:03:29;;;;;;;;;;;;;;;19.55;70.22;100406.09;1458099;90;20314;-80
2022/07/29 04:06:00;;;;;;;;;;;;;;;19.61;70.27;100401.23;1459182;89;20352;-81
2022/07/29 04:08:27;;;;;;;;;;;;;;;19.68;70.48;100401.28;1468661;89;20301;-81
2022/07/29 04:10:52;;;;;;;;;;;;;;;19.76;69.90;100396.20;1444286;89;20317;-81
2022/07/29 04:13:20;;;;;;;;;;;;;;;19.84;69.56;100396.80;1437787;89;20383;-80
2022/07/29 04:15:46;;;;;;;;;;;;;;;19.90;69.25;100397.00;1429647;89;20421;-81
2022/07/29 04:18:12;;;;;;;;;;;;;;;19.95;69.15;100395.34;1419923;90;20310;-81
2022/07/29 04:20:38;;;;;;;;;;;;;;;20.03;68.53;100396.98;1446586;89;20332;-80
2022/07/29 04:23:04;;;;;;;;;;;;;;;20.04;68.88;100398.11;1461631;89;20293;-81
2022/07/29 04:25:30;;;;;;;;;;;;;;;20.10;68.54;100401.81;1456215;89;20329;-81
2022/07/29 04:28:01;;;;;;;;;;;;;;;20.13;68.26;100398.70;1452885;89;20895;-79
2022/07/29 04:30:28;;;;;;;;;;;;;;;20.17;69.25;100399.95;1453467;89;20456;-79
2022/07/29 04:32:53;;;;;;;;;;;;;;;20.21;69.51;100402.51;1451373;89;20299;-79
2022/07/29 04:35:20;;;;;;;;;;;;;;;20.22;68.56;100402.80;1433445;89;20323;-79
2022/07/29 04:37:46;;;;;;;;;;;;;;;20.23;68.79;100399.63;1454328;89;20901;-79
2022/07/29 04:40:12;;;;;;;;;;;;;;;20.23;68.62;100400.97;1438897;89;20281;-80
2022/07/29 04:42:39;;;;;;;;;;;;;;;20.28;68.75;100399.80;1454623;89;20299;-80
2022/07/29 04:45:06;;;;;;;;;;;;;;;20.32;68.79;100400.22;1447827;89;20249;-80
2022/07/29 04:47:32;;;;;;;;;;;;;;;20.41;68.86;100402.97;1441392;89;20625;-80
2022/07/29 04:49:58;;;;;;;;;;;;;;;20.48;68.83;100398.38;1436888;89;20279;-80
2022/07/29 04:52:24;;;;;;;;;;;;;;;20.57;67.98;100401.67;1454290;89;20345;-80
2022/07/29 04:54:50;;;;;;;;;;;;;;;20.67;67.86;100405.56;1440053;89;20309;-81
2022/07/29 04:57:16;;;;;;;;;;;;;;;20.78;68.28;100406.76;1436036;89;20385;-80
2022/07/29 04:59:42;;;;;;;;;;;;;;;20.92;67.54;100412.89;1447644;89;20248;-80
2022/07/29 05:02:08;;;;;;;;;;;;;;;21.04;66.68;100409.81;1433357;89;20340;-81
2022/07/29 05:04:33;;;;;;;;;;;;;;;21.14;66.23;100410.14;1453803;89;20306;-81
2022/07/29 05:06:59;;;;;;;;;;;;;;;21.29;66.34;100417.94;1438281;89;20347;-80
2022/07/29 05:09:25;;;;;;;;;;;;;;;21.39;65.72;100423.67;1434184;89;20309;-81
2022/07/29 05:11:51;;;;;;;;;;;;;;;21.52;64.84;100413.83;1434727;89;20353;-80
2022/07/29 05:14:16;;;;;;;;;;;;;;;21.61;64.76;100420.09;1434264;89;20469;-81
2022/07/29 05:16:43;;;;;;;;;;;;;;;21.71;63.94;100426.31;1434252;89;20269;-80
2022/07/29 05:19:09;;;;;;;;;;;;;;;21.77;63.34;100424.08;1458199;89;20352;-78
2022/07/29 05:21:35;;;;;;;;;;;;;;;21.83;63.68;100425.06;1444495;89;20285;-82
2022/07/29 05:24:01;;;;;;;;;;;;;;;21.89;63.59;100424.17;1453821;89;20289;-82
2022/07/29 05:26:27;;;;;;;;;;;;;;;21.95;63.23;100427.34;1443161;89;20740;-82
2022/07/29 05:28:54;;;;;;;;;;;;;;;21.99;62.89;100417.76;1459625;89;20382;-81
2022/07/29 05:31:20;;;;;;;;;;;;;;;22.08;62.67;100419.11;1444758;89;21779;-82
2022/07/29 05:33:45;;;;;;;;;;;;;;;22.08;62.62;100412.38;1458327;89;20306;-82
2022/07/29 05:36:11;;;;;;;;;;;;;;;22.15;62.53;100414.16;1453869;90;20301;-81
2022/07/29 05:38:37;;;;;;;;;;;;;;;22.20;62.64;100413.01;1434962;90;20328;-82
2022/07/29 05:41:04;;;;;;;;;;;;;;;22.28;62.43;100413.53;1441463;90;20292;-82
2022/07/29 05:43:31;;;;;;;;;;;;;;;22.36;62.43;100412.41;1447772;89;20311;-81
2022/07/29 05:45:57;;;;;;;;;;;;;;;22.38;61.96;100410.30;1458874;89;20285;-82
2022/07/29 05:48:23;;;;;;;;;;;;;;;22.46;62.12;100407.30;1438857;91;20301;-82
2022/07/29 05:50:49;;;;;;;;;;;;;;;22.58;61.78;100411.93;1441070;89;20280;-82
2022/07/29 05:53:14;;;;;;;;;;;;;;;22.66;62.34;100408.92;1443892;89;20316;-82
2022/07/29 05:55:40;;;;;;;;;;;;;;;22.61;61.33;100405.55;1481635;88;20823;-82
2022/07/29 05:58:06;;;;;;;;;;;;;;;22.62;61.78;100405.05;1488486;87;20274;-81
2022/07/29 06:00:32;;;;;;;;;;;;;;;22.65;62.39;100404.59;1478841;87;21615;-81
2022/07/29 06:02:58;;;;;;;;;;;;;;;22.64;62.10;100401.58;1480119;88;20306;-82
2022/07/29 06:05:24;;;;;;;;;;;;;;;22.68;62.11;100409.53;1475363;88;20318;-80
2022/07/29 06:07:49;;;;;;;;;;;;;;;22.71;62.13;100410.42;1484324;87;20298;-80
2022/07/29 06:10:15;;;;;;;;;;;;;;;22.75;62.36;100413.77;1472705;88;20269;-80
2022/07/29 06:12:41;;;;;;;;;;;;;;;22.80;61.94;100416.33;1484500;88;20399;-81
2022/07/29 06:15:08;;;;;;;;;;;;;;;22.87;61.66;100423.29;1477074;88;20302;-81
2022/07/29 06:17:34;;;;;;;;;;;;;;;22.98;61.78;100418.99;1483384;88;20816;-82
2022/07/29 06:20:00;;;;;;;;;;;;;;;23.10;61.60;100413.13;1474596;88;20290;-82
2022/07/29 06:22:26;;;;;;;;;;;;;;;23.25;61.08;100420.80;1481422;88;20295;-81
2022/07/29 06:24:52;;;;;;;;;;;;;;;23.38;60.76;100420.56;1476852;88;20446;-82
2022/07/29 06:27:18;;;;;;;;;;;;;;;23.53;60.09;100419.30;1469253;88;20928;-82
2022/07/29 06:29:43;;;;;;;;;;;;;;;23.64;59.71;100411.73;1470209;88;20333;-82
2022/07/29 06:32:09;;;;;;;;;;;;;;;23.79;60.00;100408.05;1463886;88;20298;-81
2022/07/29 06:34:36;;;;;;;;;;;;;;;23.94;60.09;100414.36;1475130;88;20328;-82
2022/07/29 06:37:07;;;;;;;;;;;;;;;24.01;59.45;100402.06;1472574;88;20289;-82
2022/07/29 06:39:36;;;;;;;;;;;;;;;24.15;59.00;100405.34;1484080;88;20406;-82
2022/07/29 06:42:05;;;;;;;;;;;;;;;24.20;59.24;100401.41;1476313;87;20414;-82
2022/07/29 06:44:33;;;;;;;;;;;;;;;24.18;58.31;100396.22;1481220;87;20384;-82
2022/07/29 06:47:00;;;;;;;;;;;;;;;24.22;57.82;100405.48;1464970;88;20433;-82
2022/07/29 06:49:27;;;;;;;;;;;;;;;24.11;57.66;100405.00;1476116;88;20288;-82
2022/07/29 06:51:54;;;;;;;;;;;;;;;24.13;58.54;100410.98;1463869;87;20568;-80
2022/07/29 06:54:20;;;;;;;;;;;;;;;24.12;58.01;100413.93;1461126;88;20275;-81
2022/07/29 06:56:46;;;;;;;;;;;;;;;24.12;58.07;100416.64;1451211;88;20432;-82
2022/07/29 06:59:12;;;;;;;;;;;;;;;24.19;58.75;100419.48;1458975;88;20298;-81
2022/07/29 07:01:41;;;;;;;;;;;;;;;24.24;58.71;100419.59;1456269;87;20311;-81
2022/07/29 07:04:08;;;;;;;;;;;;;;;24.21;58.08;100422.78;1474498;88;20330;-81
2022/07/29 07:06:34;;;;;;;;;;;;;;;24.25;57.91;100425.28;1444678;88;20285;-81
2022/07/29 07:09:00;;;;;;;;;;;;;;;24.49;57.68;100419.87;1468501;88;20395;-82
2022/07/29 07:11:26;;;;;;;;;;;;;;;24.66;57.44;100427.53;1461538;88;20587;-81
2022/07/29 07:13:53;;;;;;;;;;;;;;;24.72;56.57;100422.50;1452515;89;21428;-81
2022/07/29 07:16:19;;;;;;;;;;;;;;;24.76;56.11;100426.36;1452027;88;20349;-82
2022/07/29 07:18:45;;;;;;;;;;;;;;;24.91;56.24;100433.13;1479071;88;21065;-82
2022/07/29 07:21:11;;;;;;;;;;;;;;;24.81;55.77;100427.53;1481438;88;20282;-82
2022/07/29 07:23:37;;;;;;;;;;;;;;;24.86;55.80;100434.38;1469820;88;20283;-82
2022/07/29 07:26:04;;;;;;;;;;;;;;;24.94;56.22;100430.75;1485459;88;20342;-82
2022/07/29 07:28:30;;;;;;;;;;;;;;;25.09;56.36;100420.75;1477280;88;20305;-82
2022/07/29 07:30:56;;;;;;;;;;;;;;;25.38;56.19;100423.45;1458425;88;20284;-82
2022/07/29 07:33:22;;;;;;;;;;;;;;;25.60;54.49;100423.51;1479496;88;20313;-81
2022/07/29 07:35:48;;;;;;;;;;;;;;;25.79;53.33;100418.66;1463137;88;20286;-81
2022/07/29 07:38:14;;;;;;;;;;;;;;;26.00;53.18;100416.55;1447275;89;20256;-81
2022/07/29 07:40:41;;;;;;;;;;;;;;;26.33;54.08;100416.18;1444247;90;20822;-82
2022/07/29 07:43:07;;;;;;;;;;;;;;;26.63;53.33;100416.28;1447293;90;20278;-82
2022/07/29 07:45:33;;;;;;;;;;;;;;;26.97;53.51;100413.66;1458223;89;20908;-82
2022/07/29 07:47:59;;;;;;;;;;;;;;;27.26;51.55;100407.98;1471009;88;20433;-82
2022/07/29 07:50:25;;;;;;;;;;;;;;;27.39;50.05;100410.27;1473310;88;20253;-82
2022/07/29 07:52:54;;;;;;;;;;;;;;;27.61;50.75;100399.28;1483101;88;20376;-82
2022/07/29 07:55:21;;;;;;;;;;;;;;;27.74;51.02;100406.72;1472277;88;20409;-81
2022/07/29 07:57:47;;;;;;;;;;;;;;;27.62;49.14;100410.96;1466344;89;20306;-82
2022/07/29 08:00:14;;;;;;;;;;;;;;;27.66;49.68;100408.83;1473180;88;20298;-81
2022/07/29 08:02:40;;;;;;;;;;;;;;;27.92;49.10;100408.22;1484408;88;20304;-82
2022/07/29 08:05:07;;;;;;;;;;;;;;;28.18;49.07;100419.50;1483058;88;20290;-82
2022/07/29 08:07:33;;;;;;;;;;;;;;;28.30;47.75;100417.38;1463204;88;20328;-82
2022/07/29 08:09:59;;;;;;;;;;;;;;;28.52;48.11;100421.86;1474260;88;20403;-82
2022/07/29 08:12:25;;;;;;;;;;;;;;;28.67;46.60;100418.36;1468773;88;20328;-82
2022/07/29 08:14:51;;;;;;;;;;;;;;;28.87;47.55;100422.49;1468718;88;20291;-81
2022/07/29 08:17:17;;;;;;;;;;;;;;;28.91;46.40;100415.95;1476337;88;20591;-81
2022/07/29 08:19:42;;;;;;;;;;;;;;;28.79;45.56;100421.10;1469185;88;20290;-81
2022/07/29 08:22:08;;;;;;;;;;;;;;;28.52;45.33;100416.41;1479594;88;20274;-81
2022/07/29 08:24:43;;;;;;;;;;;;;;;28.59;45.75;100416.97;1478518;88;20247;-81
2022/07/29 08:27:13;;;;;;;;;;;;;;;28.66;46.27;100418.91;1479387;88;20431;-81
2022/07/29 08:29:40;;;;;;;;;;;;;;;28.72;46.76;100426.00;1472918;88;20304;-81
2022/07/29 08:32:06;;;;;;;;;;;;;;;28.87;46.95;100427.94;1476398;88;20759;-81
2022/07/29 08:34:32;;;;;;;;;;;;;;;28.95;46.44;100421.16;1480980;88;20314;-82
2022/07/29 08:36:58;;;;;;;;;;;;;;;28.94;45.43;100426.31;1482265;88;21126;-82
2022/07/29 08:39:24;;;;;;;;;;;;;;;28.92;45.04;100418.97;1473141;88;20401;-81
2022/07/29 08:41:51;;;;;;;;;;;;;;;29.01;45.11;100422.80;1460230;88;20811;-82
2022/07/29 08:44:18;;;;;;;;;;;;;;;29.17;45.30;100428.55;1483613;88;20365;-81
2022/07/29 08:46:44;;;;;;;;;;;;;;;29.28;45.02;100425.29;1475849;88;20344;-82
2022/07/29 08:49:10;;;;;;;;;;;;;;;29.48;45.07;100416.30;1461467;88;20941;-82
2022/07/29 08:51:38;;;;;;;;;;;;;;;29.56;44.70;100422.56;1457147;88;20268;-82
2022/07/29 08:54:05;;;;;;;;;;;;;;;29.63;44.05;100409.48;1478572;88;20275;-81
2022/07/29 08:56:32;;;;;;;;;;;;;;;29.56;44.17;100417.11;1471991;88;20342;-82
2022/07/29 08:58:59;;;;;;;;;;;;;;;29.49;44.23;100413.02;1471458;88;20818;-82
2022/07/29 09:01:27;;;;;;;;;;;;;;;29.80;44.68;100416.55;1472683;88;20291;-81
2022/07/29 09:03:59;;;;;;;;;;;;;;;30.05;44.77;100404.22;1476557;88;20358;-81
2022/07/29 09:06:27;;;;;;;;;;;;;;;30.23;43.29;100404.73;1473508;88;20438;-81
2022/07/29 09:08:56;;;;;;;;;;;;;;;30.35;42.80;100403.85;1474988;88;20490;-82
2022/07/29 09:11:22;;;;;;;;;;;;;;;30.21;42.88;100402.30;1464611;88;20394;-82
2022/07/29 09:13:49;;;;;;;;;;;;;;;30.41;43.61;100400.55;1441274;88;20993;-82
2022/07/29 09:16:15;;;;;;;;;;;;;;;30.44;43.03;100397.25;1439520;88;20468;-82
2022/07/29 09:18:47;;;;;;;;;;;;;;;30.55;42.68;100390.65;1427790;89;20287;-83
2022/07/29 09:24:12;;;;;;;;;;;;;;;31.07;42.84;100392.53;1403739;91;20296;-83
2022/07/29 09:26:44;;;;;;;;;;;;;;;31.07;39.95;100389.23;1394020;92;20383;-83
2022/07/29 09:29:18;;;;;;;;;;;;;;;31.44;41.89;100388.67;1425078;90;20425;-82
2022/07/29 09:31:46;;;;;;;;;;;;;;;31.72;41.26;100388.96;1442329;88;20292;-82
2022/07/29 09:34:15;;;;;;;;;;;;;;;32.00;39.07;100389.25;1452584;90;20426;-83
2022/07/29 09:36:45;;;;;;;;;;;;;;;32.00;39.34;100387.88;1463324;88;20298;-84
2022/07/29 09:39:12;;;;;;;;;;;;;;;31.89;38.01;100380.30;1468657;88;20924;-83
2022/07/29 09:41:53;;;;;;;;;;;;;;;32.06;38.67;100386.16;1465960;88;20461;-83
2022/07/29 09:44:20;;;;;;;;;;;;;;;32.17;39.20;100378.64;1558456;88;20246;-82
2022/07/29 09:46:58;;;;;;;;;;;;;;;32.25;38.98;100374.41;1366152;89;20755;-82
2022/07/29 09:49:24;;;;;;;;;;;;;;;32.38;38.50;100376.44;1441404;88;20332;-83
2022/07/29 09:52:08;;;;;;;;;;;;;;;32.45;38.72;100376.91;1551587;88;20210;-83
2022/07/29 09:54:38;;;;;;;;;;;;;;;32.47;39.03;100372.52;1521878;88;20261;-83
2022/07/29 09:57:06;;;;;;;;;;;;;;;32.47;38.05;100363.74;1533733;88;20894;-82
2022/07/29 09:59:33;;;;;;;;;;;;;;;32.48;37.94;100363.98;1500661;88;20297;-82
2022/07/29 10:01:59;;;;;;;;;;;;;;;32.13;37.26;100357.05;1472888;88;20290;-83
2022/07/29 10:04:37;;;;;;;;;;;;;;;31.93;37.84;100352.63;1475801;88;20261;-83
2022/07/29 10:07:04;;;;;;;;;;;;;;;31.89;38.37;100346.91;1469754;88;20284;-82
2022/07/29 10:09:31;;;;;;;;;;;;;;;32.05;37.65;100349.48;1472512;87;20284;-82
2022/07/29 10:12:13;;;;;;;;;;;;;;;32.17;38.32;100354.00;1481371;87;20356;-83
2022/07/29 10:14:39;;;;;;;;;;;;;;;31.87;37.67;100346.38;1424347;87;20757;-83
2022/07/29 10:17:07;;;;;;;;;;;;;;;32.06;39.10;100347.02;1493028;87;21444;-83
2022/07/29 10:19:34;;;;;;;;;;;;;;;32.12;39.31;100354.87;1472606;87;20398;-84
2022/07/29 10:22:02;;;;;;;;;;;;;;;32.17;37.79;100349.89;1493447;87;20317;-84
2022/07/29 10:24:29;;;;;;;;;;;;;;;32.16;38.65;100349.61;1470417;86;21033;-84
2022/07/29 10:27:01;;;;;;;;;;;;;;;32.13;38.62;100344.73;1455948;88;20425;-84
2022/07/29 10:29:31;;;;;;;;;;;;;;;32.13;38.25;100346.09;1443569;87;20407;-84
2022/07/29 10:32:13;;;;;;;;;;;;;;;32.17;38.96;100351.27;1474881;87;20306;-84
2022/07/29 10:35:04;;;;;;;;;;;;;;;32.10;38.92;100339.84;1469717;88;20319;-84
2022/07/29 10:37:48;;;;;;;;;;;;;;;32.13;38.87;100343.36;1495017;87;20414;-83
2022/07/29 10:43:28;;;;;;;;;;;;;;;32.02;38.65;100341.30;1445671;89;20589;-83
2022/07/29 10:46:01;;;;;;;;;;;;;;;31.93;38.72;100344.98;1469295;87;20335;-83
2022/07/29 10:48:28;;;;;;;;;;;;;;;31.88;39.10;100337.61;1485788;87;20876;-84
2022/07/29 10:50:58;;;;;;;;;;;;;;;31.80;39.54;100344.56;1488841;87;20858;-84
2022/07/29 10:53:26;;;;;;;;;;;;;;;31.62;38.05;100343.39;1493104;86;20312;-84
2022/07/29 10:55:52;;;;;;;;;;;;;;;31.45;39.32;100341.11;1477279;87;20415;-83
2022/07/29 10:58:22;;;;;;;;;;;;;;;31.29;39.35;100345.05;1470919;87;20345;-84
2022/07/29 11:00:53;;;;;;;;;;;;;;;31.13;39.51;100338.08;1469229;87;20824;-83
2022/07/29 11:03:43;;;;;;;;;;;;;;;30.97;40.23;100343.69;1468604;87;20313;-84
2022/07/29 11:06:09;;;;;;;;;;;;;;;30.84;40.01;100351.16;1483670;86;20325;-84
2022/07/29 11:08:36;;;;;;;;;;;;;;;30.69;41.10;100347.14;1489586;86;20381;-84
2022/07/29 11:11:29;;;;;;;;;;;;;;;30.57;40.65;100342.84;1463823;86;20809;-84
2022/07/29 11:13:55;;;;;;;;;;;;;;;30.51;41.15;100343.98;1459435;88;20335;-84
2022/07/29 11:16:22;;;;;;;;;;;;;;;30.40;40.92;100337.50;1452287;87;20273;-84
2022/07/29 11:19:12;;;;;;;;;;;;;;;30.30;41.57;100337.02;1496185;86;20387;-84
2022/07/29 11:21:41;;;;;;;;;;;;;;;30.12;40.68;100327.50;1488740;87;20573;-84
2022/07/29 11:24:18;;;;;;;;;;;;;;;30.07;41.08;100331.64;1481781;87;20297;-84
2022/07/29 11:26:45;;;;;;;;;;;;;;;30.05;41.15;100328.36;1491998;86;20487;-84
2022/07/29 11:29:24;;;;;;;;;;;;;;;30.05;41.56;100325.08;1470794;86;20425;-85
2022/07/29 11:31:55;;;;;;;;;;;;;;;30.06;41.26;100321.25;1482548;87;20335;-83
2022/07/29 11:34:29;;;;;;;;;;;;;;;30.13;41.09;100322.33;1478974;86;20606;-83
2022/07/29 11:37:09;;;;;;;;;;;;;;;30.24;40.64;100314.39;1502853;88;20398;-83
2022/07/29 11:39:47;;;;;;;;;;;;;;;30.42;40.61;100317.56;1475305;86;20359;-83
2022/07/29 11:42:26;;;;;;;;;;;;;;;30.60;40.04;100313.34;1469427;86;20876;-84
2022/07/29 11:44:58;;;;;;;;;;;;;;;30.80;40.22;100314.03;1502664;87;20303;-84
2022/07/29 11:47:29;;;;;;;;;;;;;;;30.92;39.89;100305.47;1469270;86;20328;-84
2022/07/29 11:49:57;;;;;;;;;;;;;;;31.07;39.64;100307.25;1472394;86;20369;-84
2022/07/29 11:52:24;;;;;;;;;;;;;;;31.19;38.85;100302.23;1481657;86;20292;-84
2022/07/29 11:54:51;;;;;;;;;;;;;;;31.32;38.90;100304.83;1458943;88;20395;-84
2022/07/29 11:57:18;;;;;;;;;;;;;;;31.39;38.37;100301.25;1457285;86;20321;-83
2022/07/29 11:59:45;;;;;;;;;;;;;;;31.41;38.84;100296.28;1500977;86;20393;-84
2022/07/29 12:02:12;;;;;;;;;;;;;;;31.49;38.76;100300.88;1585678;86;20244;-84
2022/07/29 12:04:55;;;;;;;;;;;;;;;31.63;39.44;100296.34;1480784;87;20337;-83
2022/07/29 12:07:27;;;;;;;;;;;;;;;31.71;37.34;100288.86;1443712;87;20254;-83
2022/07/29 12:09:53;;;;;;;;;;;;;;;31.96;38.39;100291.84;1413173;91;20289;-84
2022/07/29 12:12:20;;;;;;;;;;;;;;;32.12;36.75;100291.09;1537153;87;20310;-84
2022/07/29 12:14:46;;;;;;;;;;;;;;;32.42;36.72;100287.65;1475882;87;20302;-82
2022/07/29 12:17:29;;;;;;;;;;;;;;;32.64;37.38;100284.34;1479969;86;20309;-83
2022/07/29 12:19:58;;;;;;;;;;;;;;;32.84;37.08;100287.30;1476311;87;20510;-83
2022/07/29 12:22:40;;;;;;;;;;;;;;;33.17;36.08;100286.17;1475447;87;20372;-82
2022/07/29 12:25:09;;;;;;;;;;;;;;;33.46;36.11;100280.97;1471856;86;20581;-83
2022/07/29 12:27:38;;;;;;;;;;;;;;;33.67;35.58;100275.38;1472627;86;21081;-83
2022/07/29 12:30:10;;;;;;;;;;;;;;;33.96;35.71;100278.91;1476770;87;20390;-84
2022/07/29 12:32:38;;;;;;;;;;;;;;;34.05;35.07;100276.52;1471955;86;20417;-83
2022/07/29 12:35:07;;;;;;;;;;;;;;;33.86;33.18;100272.50;1470893;86;20369;-82
2022/07/29 12:37:38;;;;;;;;;;;;;;;33.95;34.90;100273.95;1471612;87;20937;-81
2022/07/29 12:40:07;;;;;;;;;;;;;;;33.97;34.57;100267.61;1458777;86;20407;-81
2022/07/29 12:42:34;;;;;;;;;;;;;;;33.92;33.07;100265.80;1477523;86;20979;-83
2022/07/29 12:45:03;;;;;;;;;;;;;;;33.82;34.07;100259.15;1524600;88;20273;-83
2022/07/29 12:47:29;;;;;;;;;;;;;;;33.83;34.13;100262.13;1382182;91;20288;-82
2022/07/29 12:50:18;;;;;;;;;;;;;;;33.88;34.95;100261.23;1561107;88;20302;-82
2022/07/29 12:52:41;;;;;;;;;;;;;;;34.01;34.94;100256.28;1490363;86;20289;-83
2022/07/29 12:55:11;;;;;;;;;;;;;;;34.27;33.80;100251.58;1475573;86;20296;-83
2022/07/29 12:57:55;;;;;;;;;;;;;;;34.51;33.68;100244.44;1495501;86;20421;-82